sensor_id;sensor_type;location;lat;lon;timestamp;pressure;altitude;pressure_sealevel;temperature;humidity
6938;BME280;40040;42.706;23.372;2022-12-11T00:01:09;146794.50;;;10.63;100.00
6938;BME280;40040;42.706;23.372;2022-12-11T00:03:36;146837.69;;;10.81;100.00
6938;BME280;40040;42.706;23.372;2022-12-11T00:06:04;146822.88;;;10.75;100.00
6938;BME280;40040;42.706;23.372;2022-12-11T00:08:32;146833.94;;;10.79;100.00
6938;BME280;40040;42.706;23.372;2022-12-11T00:11:00;146841.38;;;10.82;100.00
6938;BME280;40040;42.706;23.372;2022-12-11T00:13:28;146857.41;;;10.89;100.00
6938;BME280;40040;42.706;23.372;2022-12-11T00:15:57;146873.44;;;10.95;100.00
6938;BME280;40040;42.706;23.372;2022-12-11T00:18:23;146868.50;;;10.93;100.00
6938;BME280;40040;42.706;23.372;2022-12-11T00:20:50;146833.94;;;10.79;100.00
6938;BME280;40040;42.706;23.372;2022-12-11T00:23:17;146838.88;;;10.81;100.00
6938;BME280;40040;42.706;23.372;2022-12-11T00:25:46;146789.56;;;10.61;100.00
6938;BME280;40040;42.706;23.372;2022-12-11T00:28:16;146729.09;;;10.37;100.00
6938;BME280;40040;42.706;23.372;2022-12-11T00:30:44;146858.66;;;10.89;100.00
6938;BME280;40040;42.706;23.372;2022-12-11T00:33:12;146872.19;;;10.95;100.00
6938;BME280;40040;42.706;23.372;2022-12-11T00:35:40;146867.31;;;10.93;100.00
6938;BME280;40040;42.706;23.372;2022-12-11T00:38:08;146804.34;;;10.67;100.00
6938;BME280;40040;42.706;23.372;2022-12-11T00:40:35;146851.22;;;10.86;100.00
6938;BME280;40040;42.706;23.372;2022-12-11T00:43:02;146856.16;;;10.88;100.00
6938;BME280;40040;42.706;23.372;2022-12-11T00:45:34;146851.22;;;10.86;100.00
6938;BME280;40040;42.706;23.372;2022-12-11T00:48:01;146895.66;;;11.04;100.00
6938;BME280;40040;42.706;23.372;2022-12-11T00:50:28;146793.25;;;10.63;100.00
6938;BME280;40040;42.706;23.372;2022-12-11T00:52:55;146893.22;;;11.03;100.00
6938;BME280;40040;42.706;23.372;2022-12-11T00:55:22;146885.78;;;11.00;100.00
6938;BME280;40040;42.706;23.372;2022-12-11T00:57:50;146890.72;;;11.02;100.00
6938;BME280;40040;42.706;23.372;2022-12-11T01:00:17;146805.59;;;10.68;100.00
6938;BME280;40040;42.706;23.372;2022-12-11T01:02:45;146894.41;;;11.04;100.00
6938;BME280;40040;42.706;23.372;2022-12-11T01:05:12;146883.34;;;10.99;100.00
6938;BME280;40040;42.706;23.372;2022-12-11T01:07:39;146917.91;;;11.13;100.00
6938;BME280;40040;42.706;23.372;2022-12-11T01:10:08;146919.16;;;11.14;100.00
6938;BME280;40040;42.706;23.372;2022-12-11T01:12:52;146889.47;;;11.02;100.00
6938;BME280;40040;42.706;23.372;2022-12-11T01:15:21;146868.50;;;10.93;100.00
6938;BME280;40040;42.706;23.372;2022-12-11T01:17:50;146895.66;;;11.04;100.00
6938;BME280;40040;42.706;23.372;2022-12-11T01:20:18;146884.59;;;11.00;100.00
6938;BME280;40040;42.706;23.372;2022-12-11T01:22:45;146899.38;;;11.06;100.00
6938;BME280;40040;42.706;23.372;2022-12-11T01:25:13;146910.50;;;11.10;100.00
6938;BME280;40040;42.706;23.372;2022-12-11T01:27:41;146909.25;;;11.10;100.00
6938;BME280;40040;42.706;23.372;2022-12-11T01:30:09;146899.38;;;11.06;100.00
6938;BME280;40040;42.706;23.372;2022-12-11T01:32:36;146900.63;;;11.06;100.00
6938;BME280;40040;42.706;23.372;2022-12-11T01:35:05;146919.16;;;11.14;100.00
6938;BME280;40040;42.706;23.372;2022-12-11T01:37:33;146904.31;;;11.08;100.00
6938;BME280;40040;42.706;23.372;2022-12-11T01:40:00;146936.38;;;11.21;100.00
6938;BME280;40040;42.706;23.372;2022-12-11T01:42:28;146945.03;;;11.24;100.00
6938;BME280;40040;42.706;23.372;2022-12-11T01:45:26;146941.31;;;11.23;100.00
6938;BME280;40040;42.706;23.372;2022-12-11T01:47:58;146866.06;;;10.92;100.00
6938;BME280;40040;42.706;23.372;2022-12-11T01:50:29;146928.97;;;11.18;100.00
6938;BME280;40040;42.706;23.372;2022-12-11T01:52:58;146930.22;;;11.18;100.00
6938;BME280;40040;42.706;23.372;2022-12-11T01:55:25;146924.03;;;11.16;100.00
6938;BME280;40040;42.706;23.372;2022-12-11T01:57:52;146851.22;;;10.86;100.00
6938;BME280;40040;42.706;23.372;2022-12-11T02:00:20;146931.47;;;11.19;100.00
6938;BME280;40040;42.706;23.372;2022-12-11T02:02:47;146930.22;;;11.18;100.00
6938;BME280;40040;42.706;23.372;2022-12-11T02:05:14;146996.88;;;11.46;100.00
6938;BME280;40040;42.706;23.372;2022-12-11T02:07:45;147237.75;;;12.43;100.00
6938;BME280;40040;42.706;23.372;2022-12-11T02:10:14;147310.66;;;12.73;100.00
6938;BME280;40040;42.706;23.372;2022-12-11T02:12:51;147429.41;;;13.21;100.00
6938;BME280;40040;42.706;23.372;2022-12-11T02:15:26;147482.53;;;13.43;100.00
6938;BME280;40040;42.706;23.372;2022-12-11T02:18:05;147570.38;;;13.79;100.00
6938;BME280;40040;42.706;23.372;2022-12-11T02:20:37;147551.78;;;13.71;100.00
6938;BME280;40040;42.706;23.372;2022-12-11T02:23:36;147609.91;;;13.95;100.00
6938;BME280;40040;42.706;23.372;2022-12-11T02:26:20;147676.72;;;14.22;100.00
6938;BME280;40040;42.706;23.372;2022-12-11T02:28:53;147746.09;;;14.50;100.00
6938;BME280;40040;42.706;23.372;2022-12-11T02:31:25;147721.34;;;14.40;100.00
6938;BME280;40040;42.706;23.372;2022-12-11T02:34:00;147751.03;;;14.52;100.00
6938;BME280;40040;42.706;23.372;2022-12-11T02:36:32;147748.53;;;14.51;100.00
6938;BME280;40040;42.706;23.372;2022-12-11T02:39:02;147790.59;;;14.68;100.00
6938;BME280;40040;42.706;23.372;2022-12-11T02:41:32;147749.78;;;14.51;100.00
6938;BME280;40040;42.706;23.372;2022-12-11T02:44:02;147805.47;;;14.74;100.00
6938;BME280;40040;42.706;23.372;2022-12-11T02:46:30;147810.44;;;14.76;100.00
6938;BME280;40040;42.706;23.372;2022-12-11T02:49:02;147773.28;;;14.61;100.00
6938;BME280;40040;42.706;23.372;2022-12-11T02:51:34;147821.56;;;14.81;100.00
6938;BME280;40040;42.706;23.372;2022-12-11T02:54:02;147815.38;;;14.78;100.00
6938;BME280;40040;42.706;23.372;2022-12-11T02:56:35;147804.22;;;14.74;100.00
6938;BME280;40040;42.706;23.372;2022-12-11T02:59:09;147780.75;;;14.64;100.00
6938;BME280;40040;42.706;23.372;2022-12-11T03:01:38;147741.13;;;14.48;100.00
6938;BME280;40040;42.706;23.372;2022-12-11T03:04:05;147686.69;;;14.26;100.00
6938;BME280;40040;42.706;23.372;2022-12-11T03:06:35;147668.06;;;14.18;100.00
6938;BME280;40040;42.706;23.372;2022-12-11T03:09:03;147691.59;;;14.28;100.00
6938;BME280;40040;42.706;23.372;2022-12-11T03:11:30;147728.75;;;14.43;100.00
6938;BME280;40040;42.706;23.372;2022-12-11T03:13:57;147760.91;;;14.56;100.00
6938;BME280;40040;42.706;23.372;2022-12-11T03:16:33;147812.88;;;14.77;100.00
6938;BME280;40040;42.706;23.372;2022-12-11T03:19:08;147887.16;;;15.07;100.00
6938;BME280;40040;42.706;23.372;2022-12-11T03:21:43;147931.75;;;15.25;100.00
6938;BME280;40040;42.706;23.372;2022-12-11T03:24:14;147988.72;;;15.48;100.00
6938;BME280;40040;42.706;23.372;2022-12-11T03:26:45;148024.66;;;15.63;100.00
6938;BME280;40040;42.706;23.372;2022-12-11T03:29:19;148030.88;;;15.65;100.00
6938;BME280;40040;42.706;23.372;2022-12-11T03:31:52;148001.13;;;15.53;100.00
6938;BME280;40040;42.706;23.372;2022-12-11T03:34:26;147925.53;;;15.23;100.00
6938;BME280;40040;42.706;23.372;2022-12-11T03:36:55;148009.78;;;15.57;100.00
6938;BME280;40040;42.706;23.372;2022-12-11T03:39:26;148014.75;;;15.59;100.00
6938;BME280;40040;42.706;23.372;2022-12-11T03:41:56;147990.00;;;15.49;100.00
6938;BME280;40040;42.706;23.372;2022-12-11T03:44:26;147963.94;;;15.38;100.00
6938;BME280;40040;42.706;23.372;2022-12-11T03:46:56;147977.59;;;15.44;100.00
6938;BME280;40040;42.706;23.372;2022-12-11T03:49:27;147924.31;;;15.22;100.00
6938;BME280;40040;42.706;23.372;2022-12-11T03:51:58;147958.97;;;15.36;100.00
6938;BME280;40040;42.706;23.372;2022-12-11T03:54:26;147966.44;;;15.39;100.00
6938;BME280;40040;42.706;23.372;2022-12-11T03:56:56;147961.47;;;15.37;100.00
6938;BME280;40040;42.706;23.372;2022-12-11T03:59:24;147946.59;;;15.31;100.00
6938;BME280;40040;42.706;23.372;2022-12-11T04:01:51;147996.19;;;15.51;100.00
6938;BME280;40040;42.706;23.372;2022-12-11T04:04:19;148089.06;;;15.89;95.35
6938;BME280;40040;42.706;23.372;2022-12-11T04:06:46;148162.16;;;16.19;96.70
6938;BME280;40040;42.706;23.372;2022-12-11T04:09:13;148122.50;;;16.03;92.84
6938;BME280;40040;42.706;23.372;2022-12-11T04:11:40;148142.38;;;16.11;92.08
6938;BME280;40040;42.706;23.372;2022-12-11T04:14:10;148137.41;;;16.09;94.06
6938;BME280;40040;42.706;23.372;2022-12-11T04:16:55;148117.53;;;16.01;96.40
6938;BME280;40040;42.706;23.372;2022-12-11T04:19:23;148048.22;;;15.72;100.00
6938;BME280;40040;42.706;23.372;2022-12-11T04:22:08;148037.03;;;15.68;100.00
6938;BME280;40040;42.706;23.372;2022-12-11T04:24:53;148027.13;;;15.64;95.87
6938;BME280;40040;42.706;23.372;2022-12-11T04:27:20;148020.97;;;15.61;100.00
6938;BME280;40040;42.706;23.372;2022-12-11T04:30:01;147956.50;;;15.35;100.00
6938;BME280;40040;42.706;23.372;2022-12-11T04:32:28;147934.22;;;15.26;100.00
6938;BME280;40040;42.706;23.372;2022-12-11T04:34:56;147898.28;;;15.12;100.00
6938;BME280;40040;42.706;23.372;2022-12-11T04:37:23;147872.28;;;15.01;100.00
6938;BME280;40040;42.706;23.372;2022-12-11T04:39:50;147909.47;;;15.16;100.00
6938;BME280;40040;42.706;23.372;2022-12-11T04:42:17;147888.41;;;15.08;100.00
6938;BME280;40040;42.706;23.372;2022-12-11T04:44:44;147926.81;;;15.23;99.79
6938;BME280;40040;42.706;23.372;2022-12-11T04:47:11;147954.00;;;15.34;95.63
6938;BME280;40040;42.706;23.372;2022-12-11T04:49:38;148020.97;;;15.61;95.46
6938;BME280;40040;42.706;23.372;2022-12-11T04:52:06;148013.53;;;15.58;99.67
6938;BME280;40040;42.706;23.372;2022-12-11T04:54:33;148011.03;;;15.57;92.80
6938;BME280;40040;42.706;23.372;2022-12-11T04:57:00;148008.56;;;15.56;95.96
6938;BME280;40040;42.706;23.372;2022-12-11T04:59:26;147981.31;;;15.45;97.11
6938;BME280;40040;42.706;23.372;2022-12-11T05:01:53;147987.53;;;15.48;94.00
6938;BME280;40040;42.706;23.372;2022-12-11T05:04:20;147978.84;;;15.44;95.12
6938;BME280;40040;42.706;23.372;2022-12-11T05:06:48;147975.16;;;15.43;93.41
6938;BME280;40040;42.706;23.372;2022-12-11T05:09:16;147972.66;;;15.42;93.50
6938;BME280;40040;42.706;23.372;2022-12-11T05:11:43;148009.78;;;15.57;93.04
6938;BME280;40040;42.706;23.372;2022-12-11T05:14:10;147998.66;;;15.52;92.93
6938;BME280;40040;42.706;23.372;2022-12-11T05:16:37;147981.31;;;15.45;91.70
6938;BME280;40040;42.706;23.372;2022-12-11T05:19:04;147977.59;;;15.44;92.81
6938;BME280;40040;42.706;23.372;2022-12-11T05:21:30;148001.13;;;15.53;93.01
6938;BME280;40040;42.706;23.372;2022-12-11T05:23:57;147960.22;;;15.37;92.87
6938;BME280;40040;42.706;23.372;2022-12-11T05:26:25;147996.19;;;15.51;91.73
6938;BME280;40040;42.706;23.372;2022-12-11T05:28:53;148001.13;;;15.53;92.96
6938;BME280;40040;42.706;23.372;2022-12-11T05:31:22;148054.38;;;15.75;90.88
6938;BME280;40040;42.706;23.372;2022-12-11T05:33:50;148045.72;;;15.71;91.23
6938;BME280;40040;42.706;23.372;2022-12-11T05:36:18;148046.97;;;15.72;91.39
6938;BME280;40040;42.706;23.372;2022-12-11T05:38:46;148053.13;;;15.74;91.58
6938;BME280;40040;42.706;23.372;2022-12-11T05:41:15;148030.88;;;15.65;92.84
6938;BME280;40040;42.706;23.372;2022-12-11T05:43:44;147981.31;;;15.45;92.80
6938;BME280;40040;42.706;23.372;2022-12-11T05:46:13;147982.56;;;15.46;94.75
6938;BME280;40040;42.706;23.372;2022-12-11T05:48:40;147965.19;;;15.39;94.29
6938;BME280;40040;42.706;23.372;2022-12-11T05:51:09;147963.94;;;15.38;94.15
6938;BME280;40040;42.706;23.372;2022-12-11T05:53:36;147936.69;;;15.27;94.46
6938;BME280;40040;42.706;23.372;2022-12-11T05:56:06;147923.09;;;15.22;94.24
6938;BME280;40040;42.706;23.372;2022-12-11T05:58:33;147946.59;;;15.31;94.01
6938;BME280;40040;42.706;23.372;2022-12-11T06:01:06;147936.69;;;15.27;94.94
6938;BME280;40040;42.706;23.372;2022-12-11T06:03:33;147930.50;;;15.25;94.85
6938;BME280;40040;42.706;23.372;2022-12-11T06:06:00;147914.44;;;15.18;95.50
6938;BME280;40040;42.706;23.372;2022-12-11T06:08:27;147884.72;;;15.06;95.65
6938;BME280;40040;42.706;23.372;2022-12-11T06:10:54;147921.84;;;15.21;94.92
6938;BME280;40040;42.706;23.372;2022-12-11T06:13:21;147874.78;;;15.02;94.65
6938;BME280;40040;42.706;23.372;2022-12-11T06:15:48;147914.44;;;15.18;93.92
6938;BME280;40040;42.706;23.372;2022-12-11T06:18:16;147972.66;;;15.42;93.96
6938;BME280;40040;42.706;23.372;2022-12-11T06:20:43;147913.16;;;15.18;93.93
6938;BME280;40040;42.706;23.372;2022-12-11T06:23:10;147947.84;;;15.32;92.97
6938;BME280;40040;42.706;23.372;2022-12-11T06:25:37;147934.22;;;15.26;92.32
6938;BME280;40040;42.706;23.372;2022-12-11T06:28:04;147998.66;;;15.52;91.21
6938;BME280;40040;42.706;23.372;2022-12-11T06:30:31;147985.03;;;15.47;92.21
6938;BME280;40040;42.706;23.372;2022-12-11T06:32:58;147941.63;;;15.29;91.47
6938;BME280;40040;42.706;23.372;2022-12-11T06:35:26;147985.03;;;15.47;92.87
6938;BME280;40040;42.706;23.372;2022-12-11T06:37:53;147973.91;;;15.42;93.27
6938;BME280;40040;42.706;23.372;2022-12-11T06:40:20;147986.28;;;15.47;93.48
6938;BME280;40040;42.706;23.372;2022-12-11T06:42:47;147983.78;;;15.46;93.94
6938;BME280;40040;42.706;23.372;2022-12-11T06:45:14;147993.69;;;15.50;93.30
6938;BME280;40040;42.706;23.372;2022-12-11T06:47:41;148037.03;;;15.68;90.33
6938;BME280;40040;42.706;23.372;2022-12-11T06:50:08;148091.53;;;15.90;89.00
6938;BME280;40040;42.706;23.372;2022-12-11T06:52:37;148100.19;;;15.94;89.97
6938;BME280;40040;42.706;23.372;2022-12-11T06:55:05;148076.69;;;15.84;90.46
6938;BME280;40040;42.706;23.372;2022-12-11T06:57:32;148012.28;;;15.58;89.42
6938;BME280;40040;42.706;23.372;2022-12-11T06:59:59;148077.94;;;15.85;90.47
6938;BME280;40040;42.706;23.372;2022-12-11T07:02:26;148087.81;;;15.89;90.31
6938;BME280;40040;42.706;23.372;2022-12-11T07:04:52;148107.66;;;15.97;89.42
6938;BME280;40040;42.706;23.372;2022-12-11T07:07:20;148134.88;;;16.08;85.65
6938;BME280;40040;42.706;23.372;2022-12-11T07:09:48;148216.66;;;16.41;86.46
6938;BME280;40040;42.706;23.372;2022-12-11T07:12:15;148181.97;;;16.27;86.39
6938;BME280;40040;42.706;23.372;2022-12-11T07:14:44;148194.41;;;16.32;88.00
6938;BME280;40040;42.706;23.372;2022-12-11T07:17:11;148184.47;;;16.28;88.90
6938;BME280;40040;42.706;23.372;2022-12-11T07:19:38;148214.22;;;16.40;88.30
6938;BME280;40040;42.706;23.372;2022-12-11T07:22:06;148128.72;;;16.05;88.33
6938;BME280;40040;42.706;23.372;2022-12-11T07:24:33;148189.44;;;16.30;89.04
6938;BME280;40040;42.706;23.372;2022-12-11T07:27:01;148152.25;;;16.15;90.23
6938;BME280;40040;42.706;23.372;2022-12-11T07:29:30;148229.06;;;16.46;88.95
6938;BME280;40040;42.706;23.372;2022-12-11T07:31:57;148244.00;;;16.52;87.55
6938;BME280;40040;42.706;23.372;2022-12-11T07:34:24;148191.91;;;16.31;85.57
6938;BME280;40040;42.706;23.372;2022-12-11T07:36:51;148283.66;;;16.68;86.22
6938;BME280;40040;42.706;23.372;2022-12-11T07:39:18;148286.13;;;16.69;87.79
6938;BME280;40040;42.706;23.372;2022-12-11T07:41:46;148204.28;;;16.36;86.94
6938;BME280;40040;42.706;23.372;2022-12-11T07:44:14;148291.09;;;16.71;87.80
6938;BME280;40040;42.706;23.372;2022-12-11T07:46:41;148267.56;;;16.61;89.66
6938;BME280;40040;42.706;23.372;2022-12-11T07:49:08;148260.09;;;16.58;90.69
6938;BME280;40040;42.706;23.372;2022-12-11T07:51:37;148309.69;;;16.78;87.29
6938;BME280;40040;42.706;23.372;2022-12-11T07:54:06;148200.56;;;16.34;86.08
6938;BME280;40040;42.706;23.372;2022-12-11T07:56:35;148239.03;;;16.50;87.69
6938;BME280;40040;42.706;23.372;2022-12-11T07:59:03;148306.00;;;16.77;88.45
6938;BME280;40040;42.706;23.372;2022-12-11T08:01:35;148304.72;;;16.76;85.97
6938;BME280;40040;42.706;23.372;2022-12-11T08:04:03;148325.81;;;16.85;86.03
6938;BME280;40040;42.706;23.372;2022-12-11T08:06:32;148309.69;;;16.78;86.17
6938;BME280;40040;42.706;23.372;2022-12-11T08:09:01;148315.88;;;16.81;86.92
6938;BME280;40040;42.706;23.372;2022-12-11T08:11:29;148283.66;;;16.68;86.80
6938;BME280;40040;42.706;23.372;2022-12-11T08:13:57;148282.41;;;16.67;87.73
6938;BME280;40040;42.706;23.372;2022-12-11T08:16:25;148320.84;;;16.83;87.33
6938;BME280;40040;42.706;23.372;2022-12-11T08:18:57;148266.31;;;16.61;87.66
6938;BME280;40040;42.706;23.372;2022-12-11T08:21:26;148324.56;;;16.84;88.38
6938;BME280;40040;42.706;23.372;2022-12-11T08:23:54;148287.38;;;16.69;89.46
6938;BME280;40040;42.706;23.372;2022-12-11T08:26:24;148288.63;;;16.70;91.17
6938;BME280;40040;42.706;23.372;2022-12-11T08:28:51;148271.28;;;16.63;90.35
6938;BME280;40040;42.706;23.372;2022-12-11T08:31:20;148186.94;;;16.29;90.02
6938;BME280;40040;42.706;23.372;2022-12-11T08:33:47;148247.72;;;16.53;91.09
6938;BME280;40040;42.706;23.372;2022-12-11T08:36:18;148112.63;;;15.99;90.97
6938;BME280;40040;42.706;23.372;2022-12-11T08:38:45;148234.06;;;16.48;93.69
6938;BME280;40040;42.706;23.372;2022-12-11T08:41:13;148235.31;;;16.48;90.08
6938;BME280;40040;42.706;23.372;2022-12-11T08:43:41;148169.59;;;16.22;91.62
6938;BME280;40040;42.706;23.372;2022-12-11T08:46:09;148212.97;;;16.39;94.54
6938;BME280;40040;42.706;23.372;2022-12-11T08:48:38;148058.09;;;15.76;95.90
6938;BME280;40040;42.706;23.372;2022-12-11T08:51:07;148201.81;;;16.35;93.83
6938;BME280;40040;42.706;23.372;2022-12-11T08:53:36;148193.16;;;16.31;96.74
6938;BME280;40040;42.706;23.372;2022-12-11T08:56:06;148181.97;;;16.27;95.73
6938;BME280;40040;42.706;23.372;2022-12-11T08:58:33;148175.81;;;16.24;98.82
6938;BME280;40040;42.706;23.372;2022-12-11T09:01:05;147993.69;;;15.50;96.31
6938;BME280;40040;42.706;23.372;2022-12-11T09:03:32;148147.28;;;16.13;97.56
6938;BME280;40040;42.706;23.372;2022-12-11T09:06:03;148142.38;;;16.11;98.66
6938;BME280;40040;42.706;23.372;2022-12-11T09:08:29;148164.63;;;16.20;96.00
6938;BME280;40040;42.706;23.372;2022-12-11T09:11:03;148129.94;;;16.06;98.44
6938;BME280;40040;42.706;23.372;2022-12-11T09:13:30;148129.94;;;16.06;100.00
6938;BME280;40040;42.706;23.372;2022-12-11T09:15:57;148132.44;;;16.07;100.00
6938;BME280;40040;42.706;23.372;2022-12-11T09:18:24;148100.19;;;15.94;100.00
6938;BME280;40040;42.706;23.372;2022-12-11T09:20:57;148055.63;;;15.75;100.00
6938;BME280;40040;42.706;23.372;2022-12-11T09:23:25;148085.38;;;15.88;100.00
6938;BME280;40040;42.706;23.372;2022-12-11T09:25:54;148105.16;;;15.96;100.00
6938;BME280;40040;42.706;23.372;2022-12-11T09:28:23;147978.84;;;15.44;100.00
6938;BME280;40040;42.706;23.372;2022-12-11T09:30:50;148053.13;;;15.74;100.00
6938;BME280;40040;42.706;23.372;2022-12-11T09:33:18;148090.31;;;15.90;100.00
6938;BME280;40040;42.706;23.372;2022-12-11T09:35:45;148089.06;;;15.89;100.00
6938;BME280;40040;42.706;23.372;2022-12-11T09:38:12;148011.03;;;15.57;100.00
6938;BME280;40040;42.706;23.372;2022-12-11T09:40:39;147996.19;;;15.51;100.00
6938;BME280;40040;42.706;23.372;2022-12-11T09:43:14;148025.91;;;15.63;100.00
6938;BME280;40040;42.706;23.372;2022-12-11T09:45:47;147954.00;;;15.34;100.00
6938;BME280;40040;42.706;23.372;2022-12-11T09:48:19;147872.28;;;15.01;100.00
6938;BME280;40040;42.706;23.372;2022-12-11T09:50:48;148090.31;;;15.90;100.00
6938;BME280;40040;42.706;23.372;2022-12-11T09:53:22;148086.63;;;15.88;100.00
6938;BME280;40040;42.706;23.372;2022-12-11T09:55:57;148016.00;;;15.59;96.01
6938;BME280;40040;42.706;23.372;2022-12-11T09:58:31;147906.97;;;15.15;95.64
6938;BME280;40040;42.706;23.372;2022-12-11T10:01:09;147955.25;;;15.35;94.86
6938;BME280;40040;42.706;23.372;2022-12-11T10:04:02;148076.69;;;15.84;96.52
6938;BME280;40040;42.706;23.372;2022-12-11T10:06:34;148127.47;;;16.05;93.36
6938;BME280;40040;42.706;23.372;2022-12-11T10:09:12;148071.72;;;15.82;93.51
6938;BME280;40040;42.706;23.372;2022-12-11T10:12:07;148085.38;;;15.88;93.72
6938;BME280;40040;42.706;23.372;2022-12-11T10:14:50;148068.03;;;15.81;94.06
6938;BME280;40040;42.706;23.372;2022-12-11T10:17:27;148081.66;;;15.86;95.22
6938;BME280;40040;42.706;23.372;2022-12-11T10:19:55;148020.97;;;15.61;94.69
6938;BME280;40040;42.706;23.372;2022-12-11T10:22:26;148068.03;;;15.81;94.57
6938;BME280;40040;42.706;23.372;2022-12-11T10:24:57;148004.88;;;15.55;94.70
6938;BME280;40040;42.706;23.372;2022-12-11T10:27:28;148112.63;;;15.99;95.20
6938;BME280;40040;42.706;23.372;2022-12-11T10:30:01;148066.75;;;15.80;95.77
6938;BME280;40040;42.706;23.372;2022-12-11T10:32:42;148077.94;;;15.85;97.58
6938;BME280;40040;42.706;23.372;2022-12-11T10:35:19;148063.06;;;15.78;100.00
6938;BME280;40040;42.706;23.372;2022-12-11T10:37:54;148053.13;;;15.74;100.00
6938;BME280;40040;42.706;23.372;2022-12-11T10:40:23;147906.97;;;15.15;100.00
6938;BME280;40040;42.706;23.372;2022-12-11T10:42:52;148002.38;;;15.54;100.00
6938;BME280;40040;42.706;23.372;2022-12-11T10:45:19;147944.13;;;15.30;100.00
6938;BME280;40040;42.706;23.372;2022-12-11T10:47:48;147958.97;;;15.36;100.00
6938;BME280;40040;42.706;23.372;2022-12-11T10:50:23;147966.44;;;15.39;100.00
6938;BME280;40040;42.706;23.372;2022-12-11T10:52:51;147976.34;;;15.43;100.00
6938;BME280;40040;42.706;23.372;2022-12-11T10:55:21;147958.97;;;15.36;100.00
6938;BME280;40040;42.706;23.372;2022-12-11T10:57:55;147961.47;;;15.37;100.00
6938;BME280;40040;42.706;23.372;2022-12-11T11:00:33;147942.88;;;15.30;100.00
6938;BME280;40040;42.706;23.372;2022-12-11T11:03:04;147921.84;;;15.21;100.00
6938;BME280;40040;42.706;23.372;2022-12-11T11:05:38;147949.09;;;15.32;100.00
6938;BME280;40040;42.706;23.372;2022-12-11T11:08:12;147968.94;;;15.40;100.00
6938;BME280;40040;42.706;23.372;2022-12-11T11:10:49;147949.09;;;15.32;100.00
6938;BME280;40040;42.706;23.372;2022-12-11T11:13:16;147928.00;;;15.24;100.00
6938;BME280;40040;42.706;23.372;2022-12-11T11:15:44;147993.69;;;15.50;100.00
6938;BME280;40040;42.706;23.372;2022-12-11T11:18:21;148013.53;;;15.58;100.00
6938;BME280;40040;42.706;23.372;2022-12-11T11:20:50;148011.03;;;15.57;100.00
6938;BME280;40040;42.706;23.372;2022-12-11T11:23:18;148030.88;;;15.65;100.00
6938;BME280;40040;42.706;23.372;2022-12-11T11:25:49;148042.00;;;15.70;98.75
6938;BME280;40040;42.706;23.372;2022-12-11T11:28:18;147999.91;;;15.53;99.46
6938;BME280;40040;42.706;23.372;2022-12-11T11:30:58;148055.63;;;15.75;99.60
6938;BME280;40040;42.706;23.372;2022-12-11T11:33:29;147921.84;;;15.21;100.00
6938;BME280;40040;42.706;23.372;2022-12-11T11:35:59;148028.38;;;15.64;100.00
6938;BME280;40040;42.706;23.372;2022-12-11T11:38:31;148054.38;;;15.75;100.00
6938;BME280;40040;42.706;23.372;2022-12-11T11:41:07;147872.28;;;15.01;100.00
6938;BME280;40040;42.706;23.372;2022-12-11T11:43:42;147867.38;;;14.99;100.00
6938;BME280;40040;42.706;23.372;2022-12-11T11:46:13;147977.59;;;15.44;100.00
6938;BME280;40040;42.706;23.372;2022-12-11T11:48:49;147899.53;;;15.12;100.00
6938;BME280;40040;42.706;23.372;2022-12-11T11:51:23;147939.19;;;15.28;100.00
6938;BME280;40040;42.706;23.372;2022-12-11T11:53:54;147913.16;;;15.18;100.00
6938;BME280;40040;42.706;23.372;2022-12-11T11:56:25;147904.50;;;15.14;100.00
6938;BME280;40040;42.706;23.372;2022-12-11T11:59:12;147838.88;;;14.88;100.00
6938;BME280;40040;42.706;23.372;2022-12-11T12:01:41;147869.84;;;15.00;100.00
6938;BME280;40040;42.706;23.372;2022-12-11T12:04:10;147903.25;;;15.14;100.00
6938;BME280;40040;42.706;23.372;2022-12-11T12:06:43;147828.97;;;14.84;100.00
6938;BME280;40040;42.706;23.372;2022-12-11T12:09:27;147770.81;;;14.60;100.00
6938;BME280;40040;42.706;23.372;2022-12-11T12:12:12;147903.25;;;15.14;100.00
6938;BME280;40040;42.706;23.372;2022-12-11T12:14:54;147642.09;;;14.08;100.00
6938;BME280;40040;42.706;23.372;2022-12-11T12:17:28;147699.06;;;14.31;100.00
6938;BME280;40040;42.706;23.372;2022-12-11T12:20:04;147628.47;;;14.02;100.00
6938;BME280;40040;42.706;23.372;2022-12-11T12:22:47;147503.56;;;13.51;100.00
6938;BME280;40040;42.706;23.372;2022-12-11T12:25:22;147414.56;;;13.15;100.00
6938;BME280;40040;42.706;23.372;2022-12-11T12:27:56;147303.25;;;12.70;100.00
6938;BME280;40040;42.706;23.372;2022-12-11T12:30:26;147243.97;;;12.46;100.00
6938;BME280;40040;42.706;23.372;2022-12-11T12:33:13;147073.50;;;11.77;100.00
6938;BME280;40040;42.706;23.372;2022-12-11T12:35:49;146999.38;;;11.47;100.00
6938;BME280;40040;42.706;23.372;2022-12-11T12:38:22;146919.16;;;11.14;100.00
6938;BME280;40040;42.706;23.372;2022-12-11T12:40:56;146848.78;;;10.85;100.00
6938;BME280;40040;42.706;23.372;2022-12-11T12:43:42;146845.09;;;10.84;100.00
6938;BME280;40040;42.706;23.372;2022-12-11T12:46:22;146759.94;;;10.49;100.00
6938;BME280;40040;42.706;23.372;2022-12-11T12:48:57;146722.91;;;10.34;100.00
6938;BME280;40040;42.706;23.372;2022-12-11T12:51:26;146523.13;;;9.53;100.00
6938;BME280;40040;42.706;23.372;2022-12-11T12:54:05;146571.22;;;9.72;100.00
6938;BME280;40040;42.706;23.372;2022-12-11T12:56:37;146584.78;;;9.78;100.00
6938;BME280;40040;42.706;23.372;2022-12-11T12:59:21;146533.00;;;9.57;100.00
6938;BME280;40040;42.706;23.372;2022-12-11T13:01:50;146387.56;;;8.97;100.00